Aérodrome :
LOGIN :

S'inscrire | Disclaimer

   EN    FR    IT 

 










Légende :    VFR   VFR Marginal   IFR   IFR Intensif   IFR Très Intensif
Visi : 
Plafond : 
>= 8 km
>= 3000ft
5 à 8 km
1000 à 3000 ft
1500m à 5 km
500 à 1000 ft
800 à 1500m
200 à 500 ft
< 800m
< 200 ft
Symboles :   Orages  Brouillard  Fortes neiges  Fortes précipitations  Vent > 20 kt
SIGMETs :   Divers  Orages  Givrage  Turbulence  Onde Orograph.  Cendres Volcan.






- Altitude de l'aérodrome : 390 ft
- Code IATA : NQY


EGHQ - Newquay

DERNIER METAR :
  • 111920Z 28017KT 9999 SCT028 08/04 Q1007

METARs EXPIRÉS :
  • 111850Z 29017KT 9999 SCT027 08/03 Q1007
  • 111820Z 29023KT 9999 SCT032 09/04 Q1007
  • 111750Z 29019KT 9999 SCT025 08/05 Q1007 RESHRA
  • 111720Z 29019KT 9999 SCT030 09/04 Q1007
  • 111650Z 29020KT 9999 BKN028 08/03 Q1007

TAF TAF EGHQ
Valide du 11 à 18h jusqu'au 11 à 22h UTC


111705Z 1118/1122 30020KT 9999 SCT025
TEMPO 1118/1122 32025G35KT 7000 SHRA
PROB40
TEMPO 1118/1122 3000 +SHRA SHGS BKN014CB



MET'MAP, la Météo Aéronautique d'un coup d'oeil ! - Copyright ORBIFLY Décembre 2007 - Disclaimer

ORBIFLY MET'MAP TEAM :

Programmation & Développement : Alexandra Zaïnal
Conception & Développement : Baudouin d'Aumeries
Co-Programmation & Développement : Marc-Olivier Méhu
Soutien technique & logistique : Manuel Goepfert

Contact : metmap@orbifly.com




SOURCES & CREDITS :

   NOAA